sensor_id;sensor_type;location;lat;lon;timestamp;temperature;humidity
23116;DHT22;11727;52.134;5.052;2024-01-15T00:02:17;1.60;99.90
23116;DHT22;11727;52.134;5.052;2024-01-15T00:04:43;1.60;99.90
23116;DHT22;11727;52.134;5.052;2024-01-15T00:07:09;1.60;99.90
23116;DHT22;11727;52.134;5.052;2024-01-15T00:09:35;1.60;99.90
23116;DHT22;11727;52.134;5.052;2024-01-15T00:12:01;1.50;99.90
23116;DHT22;11727;52.134;5.052;2024-01-15T00:14:27;1.50;99.90
23116;DHT22;11727;52.134;5.052;2024-01-15T00:16:53;1.50;99.90
23116;DHT22;11727;52.134;5.052;2024-01-15T00:19:21;1.40;99.90
23116;DHT22;11727;52.134;5.052;2024-01-15T00:21:47;1.40;99.90
23116;DHT22;11727;52.134;5.052;2024-01-15T00:24:13;1.40;99.90
23116;DHT22;11727;52.134;5.052;2024-01-15T00:26:39;1.40;99.90
23116;DHT22;11727;52.134;5.052;2024-01-15T00:29:06;1.40;99.90
23116;DHT22;11727;52.134;5.052;2024-01-15T00:31:32;1.40;99.90
23116;DHT22;11727;52.134;5.052;2024-01-15T00:33:58;1.40;99.90
23116;DHT22;11727;52.134;5.052;2024-01-15T00:36:23;1.30;99.90
23116;DHT22;11727;52.134;5.052;2024-01-15T00:38:49;1.30;99.90
23116;DHT22;11727;52.134;5.052;2024-01-15T00:41:15;1.30;99.90
23116;DHT22;11727;52.134;5.052;2024-01-15T00:43:41;1.30;99.90
23116;DHT22;11727;52.134;5.052;2024-01-15T00:46:07;1.30;99.90
23116;DHT22;11727;52.134;5.052;2024-01-15T00:48:33;1.30;99.90
23116;DHT22;11727;52.134;5.052;2024-01-15T00:50:59;1.40;99.90
23116;DHT22;11727;52.134;5.052;2024-01-15T00:53:25;1.40;99.90
23116;DHT22;11727;52.134;5.052;2024-01-15T00:55:51;1.40;99.90
23116;DHT22;11727;52.134;5.052;2024-01-15T00:58:17;1.50;99.90
23116;DHT22;11727;52.134;5.052;2024-01-15T01:00:42;1.50;99.90
23116;DHT22;11727;52.134;5.052;2024-01-15T01:03:08;1.50;99.90
23116;DHT22;11727;52.134;5.052;2024-01-15T01:05:34;1.60;99.90
23116;DHT22;11727;52.134;5.052;2024-01-15T01:08:00;1.60;99.90
23116;DHT22;11727;52.134;5.052;2024-01-15T01:10:26;1.60;99.90
23116;DHT22;11727;52.134;5.052;2024-01-15T01:12:52;1.70;99.90
23116;DHT22;11727;52.134;5.052;2024-01-15T01:15:18;1.70;99.90
23116;DHT22;11727;52.134;5.052;2024-01-15T01:17:44;1.70;99.90
23116;DHT22;11727;52.134;5.052;2024-01-15T01:20:09;1.80;99.90
23116;DHT22;11727;52.134;5.052;2024-01-15T01:22:36;1.80;99.90
23116;DHT22;11727;52.134;5.052;2024-01-15T01:25:02;1.80;99.90
23116;DHT22;11727;52.134;5.052;2024-01-15T01:27:28;1.80;99.90
23116;DHT22;11727;52.134;5.052;2024-01-15T01:29:53;1.80;99.90
23116;DHT22;11727;52.134;5.052;2024-01-15T01:32:19;1.80;99.90
23116;DHT22;11727;52.134;5.052;2024-01-15T01:34:45;1.80;99.90
23116;DHT22;11727;52.134;5.052;2024-01-15T01:37:11;1.80;99.90
23116;DHT22;11727;52.134;5.052;2024-01-15T01:39:44;1.80;99.90
23116;DHT22;11727;52.134;5.052;2024-01-15T01:42:10;1.80;99.90
23116;DHT22;11727;52.134;5.052;2024-01-15T01:44:36;1.80;99.90
23116;DHT22;11727;52.134;5.052;2024-01-15T01:47:02;1.80;99.90
23116;DHT22;11727;52.134;5.052;2024-01-15T01:49:29;1.80;99.90
23116;DHT22;11727;52.134;5.052;2024-01-15T01:52:00;1.80;99.90
23116;DHT22;11727;52.134;5.052;2024-01-15T01:54:29;1.80;99.90
23116;DHT22;11727;52.134;5.052;2024-01-15T01:56:55;1.80;99.90
23116;DHT22;11727;52.134;5.052;2024-01-15T01:59:22;1.80;99.90
23116;DHT22;11727;52.134;5.052;2024-01-15T02:01:49;1.80;99.90
23116;DHT22;11727;52.134;5.052;2024-01-15T02:04:15;1.80;99.90
23116;DHT22;11727;52.134;5.052;2024-01-15T02:06:41;1.80;99.90
23116;DHT22;11727;52.134;5.052;2024-01-15T02:09:08;1.70;99.90
23116;DHT22;11727;52.134;5.052;2024-01-15T02:11:34;1.80;99.90
23116;DHT22;11727;52.134;5.052;2024-01-15T02:14:00;1.70;99.90
23116;DHT22;11727;52.134;5.052;2024-01-15T02:16:26;1.70;99.90
23116;DHT22;11727;52.134;5.052;2024-01-15T02:18:52;1.70;99.90
23116;DHT22;11727;52.134;5.052;2024-01-15T02:21:17;1.70;99.90
23116;DHT22;11727;52.134;5.052;2024-01-15T02:23:43;1.70;99.90
23116;DHT22;11727;52.134;5.052;2024-01-15T02:26:09;1.70;99.90
23116;DHT22;11727;52.134;5.052;2024-01-15T02:28:34;1.70;99.90
23116;DHT22;11727;52.134;5.052;2024-01-15T02:31:00;1.70;99.90
23116;DHT22;11727;52.134;5.052;2024-01-15T02:33:26;1.70;99.90
23116;DHT22;11727;52.134;5.052;2024-01-15T02:35:52;1.70;99.90
23116;DHT22;11727;52.134;5.052;2024-01-15T02:38:17;1.80;99.90
23116;DHT22;11727;52.134;5.052;2024-01-15T02:40:44;1.70;99.90
23116;DHT22;11727;52.134;5.052;2024-01-15T02:43:10;1.70;99.90
23116;DHT22;11727;52.134;5.052;2024-01-15T02:45:35;1.70;99.90
23116;DHT22;11727;52.134;5.052;2024-01-15T02:48:01;1.70;99.90
23116;DHT22;11727;52.134;5.052;2024-01-15T02:50:27;1.70;99.90
23116;DHT22;11727;52.134;5.052;2024-01-15T02:52:52;1.70;99.90
23116;DHT22;11727;52.134;5.052;2024-01-15T02:55:18;1.70;99.90
23116;DHT22;11727;52.134;5.052;2024-01-15T02:57:44;1.70;99.90
23116;DHT22;11727;52.134;5.052;2024-01-15T03:00:10;1.60;99.90
23116;DHT22;11727;52.134;5.052;2024-01-15T03:02:39;1.60;99.90
23116;DHT22;11727;52.134;5.052;2024-01-15T03:05:06;1.60;99.90
23116;DHT22;11727;52.134;5.052;2024-01-15T03:07:33;1.60;99.90
23116;DHT22;11727;52.134;5.052;2024-01-15T03:09:58;1.60;99.90
23116;DHT22;11727;52.134;5.052;2024-01-15T03:12:24;1.60;99.90
23116;DHT22;11727;52.134;5.052;2024-01-15T03:14:50;1.60;99.90
23116;DHT22;11727;52.134;5.052;2024-01-15T03:17:15;1.60;99.90
23116;DHT22;11727;52.134;5.052;2024-01-15T03:19:41;1.60;99.90
23116;DHT22;11727;52.134;5.052;2024-01-15T03:22:07;1.60;99.90
23116;DHT22;11727;52.134;5.052;2024-01-15T03:24:34;1.70;99.90
23116;DHT22;11727;52.134;5.052;2024-01-15T03:27:00;1.70;99.90
23116;DHT22;11727;52.134;5.052;2024-01-15T03:29:26;1.70;99.90
23116;DHT22;11727;52.134;5.052;2024-01-15T03:31:52;1.80;99.90
23116;DHT22;11727;52.134;5.052;2024-01-15T03:34:18;1.80;99.90
23116;DHT22;11727;52.134;5.052;2024-01-15T03:36:44;1.90;99.90
23116;DHT22;11727;52.134;5.052;2024-01-15T03:39:09;1.80;99.90
23116;DHT22;11727;52.134;5.052;2024-01-15T03:41:35;1.90;99.90
23116;DHT22;11727;52.134;5.052;2024-01-15T03:44:00;1.90;99.90
23116;DHT22;11727;52.134;5.052;2024-01-15T03:46:27;1.90;99.90
23116;DHT22;11727;52.134;5.052;2024-01-15T03:48:54;1.90;99.90
23116;DHT22;11727;52.134;5.052;2024-01-15T03:51:20;2.00;99.90
23116;DHT22;11727;52.134;5.052;2024-01-15T03:53:46;1.90;99.90
23116;DHT22;11727;52.134;5.052;2024-01-15T03:56:12;2.00;99.90
23116;DHT22;11727;52.134;5.052;2024-01-15T03:58:38;1.90;99.90
23116;DHT22;11727;52.134;5.052;2024-01-15T04:01:03;1.90;99.90
23116;DHT22;11727;52.134;5.052;2024-01-15T04:03:32;1.90;99.90
23116;DHT22;11727;52.134;5.052;2024-01-15T04:05:58;1.90;99.90
23116;DHT22;11727;52.134;5.052;2024-01-15T04:08:24;1.90;99.90
23116;DHT22;11727;52.134;5.052;2024-01-15T04:10:49;1.90;99.90
23116;DHT22;11727;52.134;5.052;2024-01-15T04:13:15;1.80;99.90
23116;DHT22;11727;52.134;5.052;2024-01-15T04:15:40;1.80;99.90
23116;DHT22;11727;52.134;5.052;2024-01-15T04:18:06;1.80;99.90
23116;DHT22;11727;52.134;5.052;2024-01-15T04:20:32;1.80;99.90
23116;DHT22;11727;52.134;5.052;2024-01-15T04:22:57;1.70;99.90
23116;DHT22;11727;52.134;5.052;2024-01-15T04:25:23;1.70;99.90
23116;DHT22;11727;52.134;5.052;2024-01-15T04:27:49;1.70;99.90
23116;DHT22;11727;52.134;5.052;2024-01-15T04:30:14;1.70;99.90
23116;DHT22;11727;52.134;5.052;2024-01-15T04:32:40;1.70;99.90
23116;DHT22;11727;52.134;5.052;2024-01-15T04:35:06;1.60;99.90
23116;DHT22;11727;52.134;5.052;2024-01-15T04:37:32;1.70;99.90
23116;DHT22;11727;52.134;5.052;2024-01-15T04:39:58;1.70;99.90
23116;DHT22;11727;52.134;5.052;2024-01-15T04:42:23;1.70;99.90
23116;DHT22;11727;52.134;5.052;2024-01-15T04:44:49;1.70;99.90
23116;DHT22;11727;52.134;5.052;2024-01-15T04:47:15;1.70;99.90
23116;DHT22;11727;52.134;5.052;2024-01-15T04:49:40;1.80;99.90
23116;DHT22;11727;52.134;5.052;2024-01-15T04:52:06;1.70;99.90
23116;DHT22;11727;52.134;5.052;2024-01-15T04:54:51;1.70;99.90
23116;DHT22;11727;52.134;5.052;2024-01-15T04:57:19;1.80;99.90
23116;DHT22;11727;52.134;5.052;2024-01-15T04:59:45;1.70;99.90
23116;DHT22;11727;52.134;5.052;2024-01-15T05:02:10;1.70;99.90
23116;DHT22;11727;52.134;5.052;2024-01-15T05:04:36;1.70;99.90
23116;DHT22;11727;52.134;5.052;2024-01-15T05:07:04;1.70;99.90
23116;DHT22;11727;52.134;5.052;2024-01-15T05:09:30;1.70;99.90
23116;DHT22;11727;52.134;5.052;2024-01-15T05:11:55;1.70;99.90
23116;DHT22;11727;52.134;5.052;2024-01-15T05:14:21;1.60;99.90
23116;DHT22;11727;52.134;5.052;2024-01-15T05:16:47;1.60;99.90
23116;DHT22;11727;52.134;5.052;2024-01-15T05:19:13;1.60;99.90
23116;DHT22;11727;52.134;5.052;2024-01-15T05:21:39;1.60;99.90
23116;DHT22;11727;52.134;5.052;2024-01-15T05:24:04;1.50;99.90
23116;DHT22;11727;52.134;5.052;2024-01-15T05:26:31;1.50;99.90
23116;DHT22;11727;52.134;5.052;2024-01-15T05:28:57;1.50;99.90
23116;DHT22;11727;52.134;5.052;2024-01-15T05:31:23;1.40;99.90
23116;DHT22;11727;52.134;5.052;2024-01-15T05:33:48;1.40;99.90
23116;DHT22;11727;52.134;5.052;2024-01-15T05:36:14;1.40;99.90
23116;DHT22;11727;52.134;5.052;2024-01-15T05:38:40;1.40;99.90
23116;DHT22;11727;52.134;5.052;2024-01-15T05:41:05;1.40;99.90
23116;DHT22;11727;52.134;5.052;2024-01-15T05:43:31;1.40;99.90
23116;DHT22;11727;52.134;5.052;2024-01-15T05:45:57;1.40;99.90
23116;DHT22;11727;52.134;5.052;2024-01-15T05:48:23;1.40;99.90
23116;DHT22;11727;52.134;5.052;2024-01-15T05:50:49;1.50;99.90
23116;DHT22;11727;52.134;5.052;2024-01-15T05:53:15;1.50;99.90
23116;DHT22;11727;52.134;5.052;2024-01-15T05:55:40;1.50;99.90
23116;DHT22;11727;52.134;5.052;2024-01-15T05:58:06;1.50;99.90
23116;DHT22;11727;52.134;5.052;2024-01-15T06:00:32;1.50;99.90
23116;DHT22;11727;52.134;5.052;2024-01-15T06:02:59;1.50;99.90
23116;DHT22;11727;52.134;5.052;2024-01-15T06:05:25;1.60;99.90
23116;DHT22;11727;52.134;5.052;2024-01-15T06:07:51;1.60;99.90
23116;DHT22;11727;52.134;5.052;2024-01-15T06:10:16;1.60;99.90
23116;DHT22;11727;52.134;5.052;2024-01-15T06:12:43;1.60;99.90
23116;DHT22;11727;52.134;5.052;2024-01-15T06:15:09;1.70;99.90
23116;DHT22;11727;52.134;5.052;2024-01-15T06:17:35;1.70;99.90
23116;DHT22;11727;52.134;5.052;2024-01-15T06:20:01;1.70;99.90
23116;DHT22;11727;52.134;5.052;2024-01-15T06:22:26;1.70;99.90
23116;DHT22;11727;52.134;5.052;2024-01-15T06:24:52;1.70;99.90
23116;DHT22;11727;52.134;5.052;2024-01-15T06:27:21;1.70;99.90
23116;DHT22;11727;52.134;5.052;2024-01-15T06:29:47;1.70;99.90
23116;DHT22;11727;52.134;5.052;2024-01-15T06:32:12;1.70;99.90
23116;DHT22;11727;52.134;5.052;2024-01-15T06:34:38;1.70;99.90
23116;DHT22;11727;52.134;5.052;2024-01-15T06:37:04;1.60;99.90
23116;DHT22;11727;52.134;5.052;2024-01-15T06:39:30;1.60;99.90
23116;DHT22;11727;52.134;5.052;2024-01-15T06:41:56;1.60;99.90
23116;DHT22;11727;52.134;5.052;2024-01-15T06:44:21;1.60;99.90
23116;DHT22;11727;52.134;5.052;2024-01-15T06:46:47;1.50;99.90
23116;DHT22;11727;52.134;5.052;2024-01-15T06:49:13;1.50;99.90
23116;DHT22;11727;52.134;5.052;2024-01-15T06:51:39;1.50;99.90
23116;DHT22;11727;52.134;5.052;2024-01-15T06:54:04;1.50;99.90
23116;DHT22;11727;52.134;5.052;2024-01-15T06:56:31;1.50;99.90
23116;DHT22;11727;52.134;5.052;2024-01-15T06:58:57;1.50;99.90
23116;DHT22;11727;52.134;5.052;2024-01-15T07:01:22;1.50;99.90
23116;DHT22;11727;52.134;5.052;2024-01-15T07:03:48;1.50;99.90
23116;DHT22;11727;52.134;5.052;2024-01-15T07:06:14;1.50;99.90
23116;DHT22;11727;52.134;5.052;2024-01-15T07:08:40;1.50;99.90
23116;DHT22;11727;52.134;5.052;2024-01-15T07:11:06;1.50;99.90
23116;DHT22;11727;52.134;5.052;2024-01-15T07:13:32;1.50;99.90
23116;DHT22;11727;52.134;5.052;2024-01-15T07:15:58;1.50;99.90
23116;DHT22;11727;52.134;5.052;2024-01-15T07:18:24;1.40;99.90
23116;DHT22;11727;52.134;5.052;2024-01-15T07:20:50;1.40;99.90
23116;DHT22;11727;52.134;5.052;2024-01-15T07:23:16;1.40;99.90
23116;DHT22;11727;52.134;5.052;2024-01-15T07:25:42;1.40;99.90
23116;DHT22;11727;52.134;5.052;2024-01-15T07:28:08;1.40;99.90
23116;DHT22;11727;52.134;5.052;2024-01-15T07:30:34;1.40;99.90
23116;DHT22;11727;52.134;5.052;2024-01-15T07:32:59;1.40;99.90
23116;DHT22;11727;52.134;5.052;2024-01-15T07:35:25;1.40;99.90
23116;DHT22;11727;52.134;5.052;2024-01-15T07:37:51;1.40;99.90
23116;DHT22;11727;52.134;5.052;2024-01-15T07:40:16;1.40;99.90
23116;DHT22;11727;52.134;5.052;2024-01-15T07:42:42;1.40;99.90
23116;DHT22;11727;52.134;5.052;2024-01-15T07:45:09;1.50;99.90
23116;DHT22;11727;52.134;5.052;2024-01-15T07:47:35;1.40;99.90
23116;DHT22;11727;52.134;5.052;2024-01-15T07:50:01;1.40;99.90
23116;DHT22;11727;52.134;5.052;2024-01-15T07:52:26;1.40;99.90
23116;DHT22;11727;52.134;5.052;2024-01-15T07:54:52;1.40;99.90
23116;DHT22;11727;52.134;5.052;2024-01-15T07:57:17;1.40;99.90
23116;DHT22;11727;52.134;5.052;2024-01-15T07:59:43;1.40;99.90
23116;DHT22;11727;52.134;5.052;2024-01-15T08:02:09;1.40;99.90
23116;DHT22;11727;52.134;5.052;2024-01-15T08:04:37;1.40;99.90
23116;DHT22;11727;52.134;5.052;2024-01-15T08:07:03;1.30;99.90
23116;DHT22;11727;52.134;5.052;2024-01-15T08:09:28;1.40;99.90
23116;DHT22;11727;52.134;5.052;2024-01-15T08:11:55;1.40;99.90
23116;DHT22;11727;52.134;5.052;2024-01-15T08:14:20;1.30;99.90
23116;DHT22;11727;52.134;5.052;2024-01-15T08:16:46;1.30;99.90
23116;DHT22;11727;52.134;5.052;2024-01-15T08:19:11;1.30;99.90
23116;DHT22;11727;52.134;5.052;2024-01-15T08:21:37;1.30;99.90
23116;DHT22;11727;52.134;5.052;2024-01-15T08:24:03;1.30;99.90
23116;DHT22;11727;52.134;5.052;2024-01-15T08:26:29;1.30;99.90
23116;DHT22;11727;52.134;5.052;2024-01-15T08:28:55;1.30;99.90
23116;DHT22;11727;52.134;5.052;2024-01-15T08:31:20;1.40;99.90
23116;DHT22;11727;52.134;5.052;2024-01-15T08:33:46;1.30;99.90
23116;DHT22;11727;52.134;5.052;2024-01-15T08:36:12;1.20;99.90
23116;DHT22;11727;52.134;5.052;2024-01-15T08:38:38;1.20;99.90
23116;DHT22;11727;52.134;5.052;2024-01-15T08:41:04;1.20;99.90
23116;DHT22;11727;52.134;5.052;2024-01-15T08:43:30;1.10;99.90
23116;DHT22;11727;52.134;5.052;2024-01-15T08:45:59;1.10;99.90
23116;DHT22;11727;52.134;5.052;2024-01-15T08:48:25;1.10;99.90
23116;DHT22;11727;52.134;5.052;2024-01-15T08:50:54;1.10;99.90
23116;DHT22;11727;52.134;5.052;2024-01-15T08:53:20;1.10;99.90
23116;DHT22;11727;52.134;5.052;2024-01-15T08:55:46;1.10;99.90
23116;DHT22;11727;52.134;5.052;2024-01-15T08:58:12;1.20;99.90
23116;DHT22;11727;52.134;5.052;2024-01-15T09:00:37;1.10;99.90
23116;DHT22;11727;52.134;5.052;2024-01-15T09:03:03;1.10;99.90
23116;DHT22;11727;52.134;5.052;2024-01-15T09:05:29;1.10;99.90
23116;DHT22;11727;52.134;5.052;2024-01-15T09:07:55;1.10;99.90
23116;DHT22;11727;52.134;5.052;2024-01-15T09:10:21;1.10;99.90
23116;DHT22;11727;52.134;5.052;2024-01-15T09:12:47;1.10;99.90
23116;DHT22;11727;52.134;5.052;2024-01-15T09:15:14;1.20;99.90
23116;DHT22;11727;52.134;5.052;2024-01-15T09:17:40;1.20;99.90
23116;DHT22;11727;52.134;5.052;2024-01-15T09:20:06;1.30;99.90
23116;DHT22;11727;52.134;5.052;2024-01-15T09:22:32;1.40;99.90
23116;DHT22;11727;52.134;5.052;2024-01-15T09:24:58;1.40;99.90
23116;DHT22;11727;52.134;5.052;2024-01-15T09:27:24;1.40;99.90
23116;DHT22;11727;52.134;5.052;2024-01-15T09:29:53;1.50;99.90
23116;DHT22;11727;52.134;5.052;2024-01-15T09:32:19;1.40;99.90
23116;DHT22;11727;52.134;5.052;2024-01-15T09:34:48;1.40;99.90
23116;DHT22;11727;52.134;5.052;2024-01-15T09:37:14;1.30;99.90
23116;DHT22;11727;52.134;5.052;2024-01-15T09:39:40;1.30;99.90
23116;DHT22;11727;52.134;5.052;2024-01-15T09:42:07;1.30;99.90
23116;DHT22;11727;52.134;5.052;2024-01-15T09:44:33;1.30;99.90
23116;DHT22;11727;52.134;5.052;2024-01-15T09:46:59;1.30;99.90
23116;DHT22;11727;52.134;5.052;2024-01-15T09:49:25;1.30;99.90
23116;DHT22;11727;52.134;5.052;2024-01-15T09:51:51;1.30;99.90
23116;DHT22;11727;52.134;5.052;2024-01-15T09:54:17;1.30;99.90
23116;DHT22;11727;52.134;5.052;2024-01-15T09:56:47;1.30;99.90
23116;DHT22;11727;52.134;5.052;2024-01-15T09:59:16;1.40;99.90
23116;DHT22;11727;52.134;5.052;2024-01-15T10:01:44;1.40;99.90
23116;DHT22;11727;52.134;5.052;2024-01-15T10:04:11;1.50;99.90
23116;DHT22;11727;52.134;5.052;2024-01-15T10:06:38;1.60;99.90
23116;DHT22;11727;52.134;5.052;2024-01-15T10:09:05;1.70;99.90
23116;DHT22;11727;52.134;5.052;2024-01-15T10:11:31;1.80;99.90
23116;DHT22;11727;52.134;5.052;2024-01-15T10:13:57;1.80;99.90
23116;DHT22;11727;52.134;5.052;2024-01-15T10:16:23;1.90;99.90
23116;DHT22;11727;52.134;5.052;2024-01-15T10:18:49;2.00;99.90
23116;DHT22;11727;52.134;5.052;2024-01-15T10:21:15;2.10;99.90
23116;DHT22;11727;52.134;5.052;2024-01-15T10:23:41;2.30;99.90
23116;DHT22;11727;52.134;5.052;2024-01-15T10:26:07;2.40;99.90
23116;DHT22;11727;52.134;5.052;2024-01-15T10:28:33;2.40;99.90
23116;DHT22;11727;52.134;5.052;2024-01-15T10:30:59;2.40;99.90
23116;DHT22;11727;52.134;5.052;2024-01-15T10:33:25;2.30;99.90
23116;DHT22;11727;52.134;5.052;2024-01-15T10:35:54;2.30;99.90
23116;DHT22;11727;52.134;5.052;2024-01-15T10:38:21;2.20;99.90
23116;DHT22;11727;52.134;5.052;2024-01-15T10:40:50;2.20;99.90
23116;DHT22;11727;52.134;5.052;2024-01-15T10:43:16;2.20;99.90
23116;DHT22;11727;52.134;5.052;2024-01-15T10:45:46;2.30;99.90
23116;DHT22;11727;52.134;5.052;2024-01-15T10:48:13;2.40;99.90
23116;DHT22;11727;52.134;5.052;2024-01-15T10:50:39;2.40;99.90
23116;DHT22;11727;52.134;5.052;2024-01-15T10:53:05;2.50;99.90
23116;DHT22;11727;52.134;5.052;2024-01-15T10:55:32;2.50;99.90
23116;DHT22;11727;52.134;5.052;2024-01-15T10:57:59;2.60;99.90
23116;DHT22;11727;52.134;5.052;2024-01-15T11:00:25;2.60;99.90
23116;DHT22;11727;52.134;5.052;2024-01-15T11:02:51;2.50;99.90
23116;DHT22;11727;52.134;5.052;2024-01-15T11:05:21;2.50;99.90
23116;DHT22;11727;52.134;5.052;2024-01-15T11:07:48;2.40;99.90
23116;DHT22;11727;52.134;5.052;2024-01-15T11:13:14;2.30;99.90
23116;DHT22;11727;52.134;5.052;2024-01-15T11:16:05;2.30;99.90
23116;DHT22;11727;52.134;5.052;2024-01-15T11:18:42;2.30;99.90
23116;DHT22;11727;52.134;5.052;2024-01-15T11:23:46;2.30;99.90
23116;DHT22;11727;52.134;5.052;2024-01-15T11:26:36;2.30;99.90
23116;DHT22;11727;52.134;5.052;2024-01-15T11:31:56;2.20;99.90
23116;DHT22;11727;52.134;5.052;2024-01-15T11:34:15;2.20;99.90
23116;DHT22;11727;52.134;5.052;2024-01-15T11:41:56;2.10;99.90
23116;DHT22;11727;52.134;5.052;2024-01-15T11:44:22;2.10;99.90
23116;DHT22;11727;52.134;5.052;2024-01-15T11:50:02;2.00;99.90
23116;DHT22;11727;52.134;5.052;2024-01-15T11:53:01;2.00;99.90
23116;DHT22;11727;52.134;5.052;2024-01-15T11:55:29;1.90;99.90
23116;DHT22;11727;52.134;5.052;2024-01-15T11:57:57;1.90;99.90
23116;DHT22;11727;52.134;5.052;2024-01-15T12:00:25;2.00;99.90
23116;DHT22;11727;52.134;5.052;2024-01-15T12:02:51;2.00;99.90
23116;DHT22;11727;52.134;5.052;2024-01-15T12:05:18;2.10;99.90
23116;DHT22;11727;52.134;5.052;2024-01-15T12:07:45;2.00;99.90
23116;DHT22;11727;52.134;5.052;2024-01-15T12:10:16;2.10;99.90
23116;DHT22;11727;52.134;5.052;2024-01-15T12:15:30;2.10;99.90
23116;DHT22;11727;52.134;5.052;2024-01-15T12:17:56;2.20;99.90
23116;DHT22;11727;52.134;5.052;2024-01-15T12:20:24;2.20;99.90
23116;DHT22;11727;52.134;5.052;2024-01-15T12:22:49;2.20;99.90
23116;DHT22;11727;52.134;5.052;2024-01-15T12:25:15;2.30;99.90
23116;DHT22;11727;52.134;5.052;2024-01-15T12:27:41;2.30;99.90
23116;DHT22;11727;52.134;5.052;2024-01-15T12:30:09;2.40;99.90
23116;DHT22;11727;52.134;5.052;2024-01-15T12:32:35;2.40;99.90
23116;DHT22;11727;52.134;5.052;2024-01-15T12:35:01;2.50;99.90
23116;DHT22;11727;52.134;5.052;2024-01-15T12:37:27;2.70;99.90
23116;DHT22;11727;52.134;5.052;2024-01-15T12:39:52;2.80;99.90
23116;DHT22;11727;52.134;5.052;2024-01-15T12:42:20;2.80;99.90
23116;DHT22;11727;52.134;5.052;2024-01-15T12:44:46;2.90;99.90
23116;DHT22;11727;52.134;5.052;2024-01-15T12:47:12;2.90;99.90
23116;DHT22;11727;52.134;5.052;2024-01-15T12:49:38;2.90;99.90
23116;DHT22;11727;52.134;5.052;2024-01-15T12:52:08;2.80;99.90
23116;DHT22;11727;52.134;5.052;2024-01-15T12:54:34;2.60;99.90
23116;DHT22;11727;52.134;5.052;2024-01-15T12:57:00;2.40;99.90
23116;DHT22;11727;52.134;5.052;2024-01-15T12:59:25;2.20;99.90
23116;DHT22;11727;52.134;5.052;2024-01-15T13:01:51;2.10;99.90
23116;DHT22;11727;52.134;5.052;2024-01-15T13:04:26;2.00;99.90
23116;DHT22;11727;52.134;5.052;2024-01-15T13:06:52;2.00;99.90
23116;DHT22;11727;52.134;5.052;2024-01-15T13:09:18;2.00;99.90
23116;DHT22;11727;52.134;5.052;2024-01-15T13:11:45;2.00;99.90
23116;DHT22;11727;52.134;5.052;2024-01-15T13:14:11;2.00;99.90
23116;DHT22;11727;52.134;5.052;2024-01-15T13:16:37;2.10;99.90
23116;DHT22;11727;52.134;5.052;2024-01-15T13:19:02;2.10;99.90
23116;DHT22;11727;52.134;5.052;2024-01-15T13:21:30;2.20;99.90
23116;DHT22;11727;52.134;5.052;2024-01-15T13:23:55;2.20;99.90
23116;DHT22;11727;52.134;5.052;2024-01-15T13:26:21;2.30;99.90
23116;DHT22;11727;52.134;5.052;2024-01-15T13:28:47;2.30;99.90
23116;DHT22;11727;52.134;5.052;2024-01-15T13:31:12;2.30;99.90
23116;DHT22;11727;52.134;5.052;2024-01-15T13:33:38;2.30;99.90
23116;DHT22;11727;52.134;5.052;2024-01-15T13:36:04;2.30;99.90
23116;DHT22;11727;52.134;5.052;2024-01-15T13:38:33;2.30;99.90
23116;DHT22;11727;52.134;5.052;2024-01-15T13:41:02;2.30;99.90
23116;DHT22;11727;52.134;5.052;2024-01-15T13:43:28;2.20;99.90
23116;DHT22;11727;52.134;5.052;2024-01-15T13:45:53;2.10;99.90
23116;DHT22;11727;52.134;5.052;2024-01-15T13:48:20;2.10;99.90
23116;DHT22;11727;52.134;5.052;2024-01-15T13:50:45;2.00;99.90
23116;DHT22;11727;52.134;5.052;2024-01-15T13:53:11;2.00;99.90
23116;DHT22;11727;52.134;5.052;2024-01-15T13:55:37;2.00;99.90
23116;DHT22;11727;52.134;5.052;2024-01-15T13:58:02;2.00;99.90
23116;DHT22;11727;52.134;5.052;2024-01-15T14:00:31;2.00;99.90
23116;DHT22;11727;52.134;5.052;2024-01-15T14:02:57;2.00;99.90
23116;DHT22;11727;52.134;5.052;2024-01-15T14:05:23;2.00;99.90
23116;DHT22;11727;52.134;5.052;2024-01-15T14:07:49;2.00;99.90
23116;DHT22;11727;52.134;5.052;2024-01-15T14:10:14;2.10;99.90
23116;DHT22;11727;52.134;5.052;2024-01-15T14:12:40;2.10;99.90
23116;DHT22;11727;52.134;5.052;2024-01-15T14:15:06;2.10;99.90
23116;DHT22;11727;52.134;5.052;2024-01-15T14:17:32;2.20;99.90
23116;DHT22;11727;52.134;5.052;2024-01-15T14:19:58;2.20;99.90
23116;DHT22;11727;52.134;5.052;2024-01-15T14:22:23;2.30;99.90
23116;DHT22;11727;52.134;5.052;2024-01-15T14:24:49;2.40;99.90
23116;DHT22;11727;52.134;5.052;2024-01-15T14:27:16;2.50;99.90
23116;DHT22;11727;52.134;5.052;2024-01-15T14:29:42;2.60;99.90
23116;DHT22;11727;52.134;5.052;2024-01-15T14:32:07;2.60;99.90
23116;DHT22;11727;52.134;5.052;2024-01-15T14:34:33;2.70;99.90
23116;DHT22;11727;52.134;5.052;2024-01-15T14:36:58;2.70;99.90
23116;DHT22;11727;52.134;5.052;2024-01-15T14:39:24;2.80;99.90
23116;DHT22;11727;52.134;5.052;2024-01-15T14:41:51;2.80;99.90
23116;DHT22;11727;52.134;5.052;2024-01-15T14:44:17;2.70;99.90
23116;DHT22;11727;52.134;5.052;2024-01-15T14:46:42;2.70;99.90
23116;DHT22;11727;52.134;5.052;2024-01-15T14:49:08;2.70;99.90
23116;DHT22;11727;52.134;5.052;2024-01-15T14:51:34;2.60;99.90
23116;DHT22;11727;52.134;5.052;2024-01-15T14:53:59;2.60;99.90
23116;DHT22;11727;52.134;5.052;2024-01-15T14:56:25;2.50;99.90
23116;DHT22;11727;52.134;5.052;2024-01-15T14:58:50;2.40;99.90
23116;DHT22;11727;52.134;5.052;2024-01-15T15:01:16;2.40;99.90
23116;DHT22;11727;52.134;5.052;2024-01-15T15:03:42;2.40;99.90
23116;DHT22;11727;52.134;5.052;2024-01-15T15:06:07;2.40;99.90
23116;DHT22;11727;52.134;5.052;2024-01-15T15:08:33;2.40;99.90
23116;DHT22;11727;52.134;5.052;2024-01-15T15:11:00;2.30;99.90
23116;DHT22;11727;52.134;5.052;2024-01-15T15:13:26;2.20;99.90
23116;DHT22;11727;52.134;5.052;2024-01-15T15:15:52;2.20;99.90
23116;DHT22;11727;52.134;5.052;2024-01-15T15:18:20;2.20;99.90
23116;DHT22;11727;52.134;5.052;2024-01-15T15:20:47;2.20;99.90
23116;DHT22;11727;52.134;5.052;2024-01-15T15:23:13;2.20;99.90
23116;DHT22;11727;52.134;5.052;2024-01-15T15:25:38;2.20;99.90
23116;DHT22;11727;52.134;5.052;2024-01-15T15:28:04;2.20;99.90
23116;DHT22;11727;52.134;5.052;2024-01-15T15:30:34;2.20;99.90
23116;DHT22;11727;52.134;5.052;2024-01-15T15:32:59;2.20;99.90
23116;DHT22;11727;52.134;5.052;2024-01-15T15:35:25;2.10;99.90
23116;DHT22;11727;52.134;5.052;2024-01-15T15:37:50;2.10;99.90
23116;DHT22;11727;52.134;5.052;2024-01-15T15:40:16;2.10;99.90
23116;DHT22;11727;52.134;5.052;2024-01-15T15:42:43;2.20;99.90
23116;DHT22;11727;52.134;5.052;2024-01-15T15:45:08;2.20;99.90
23116;DHT22;11727;52.134;5.052;2024-01-15T15:47:35;2.20;99.90
23116;DHT22;11727;52.134;5.052;2024-01-15T15:50:01;2.20;99.90
23116;DHT22;11727;52.134;5.052;2024-01-15T15:52:27;2.20;99.90
23116;DHT22;11727;52.134;5.052;2024-01-15T15:54:53;2.20;99.90
23116;DHT22;11727;52.134;5.052;2024-01-15T15:57:20;2.10;99.90
23116;DHT22;11727;52.134;5.052;2024-01-15T15:59:45;2.10;99.90